createdAt,value
2022-11-09T00:00:16.714Z,94305.00
2022-11-09T00:01:13.175Z,94304.41
2022-11-09T00:02:09.610Z,94309.09
2022-11-09T00:03:06.225Z,94310.31
2022-11-09T00:04:03.551Z,94313.25
2022-11-09T00:05:00.032Z,94311.84
2022-11-09T00:05:57.431Z,94319.38
2022-11-09T00:06:53.946Z,94315.47
2022-11-09T00:07:50.389Z,94314.25
2022-11-09T00:08:46.828Z,94318.31
2022-11-09T00:09:43.321Z,94313.22
2022-11-09T00:10:39.876Z,94316.88
2022-11-09T00:11:37.837Z,94310.47
2022-11-09T00:12:34.359Z,94318.28
2022-11-09T00:13:30.853Z,94312.03
2022-11-09T00:14:27.360Z,94318.97
2022-11-09T00:15:23.811Z,94318.94
2022-11-09T00:16:21.431Z,94321.44
2022-11-09T00:17:17.925Z,94316.16
2022-11-09T00:18:14.358Z,94317.19
2022-11-09T00:19:10.971Z,94315.78
2022-11-09T00:20:08.089Z,94324.22
2022-11-09T00:21:08.569Z,94320.13
2022-11-09T00:22:05.098Z,94315.88
2022-11-09T00:23:01.585Z,94323.78
2022-11-09T00:23:58.073Z,94327.41
2022-11-09T00:24:54.525Z,94325.66
2022-11-09T00:25:51.034Z,94324.72
2022-11-09T00:26:47.567Z,94323.84
2022-11-09T00:27:44.044Z,94317.91
2022-11-09T00:28:40.593Z,94325.88
2022-11-09T00:29:37.069Z,94329.78
2022-11-09T00:30:33.593Z,94324.66
2022-11-09T00:31:30.074Z,94319.81
2022-11-09T00:32:27.999Z,94323.84
2022-11-09T00:33:24.752Z,94324.31
2022-11-09T00:34:21.205Z,94327.28
2022-11-09T00:35:17.646Z,94325.53
2022-11-09T00:36:14.091Z,94330.38
2022-11-09T00:37:10.591Z,94328.75
2022-11-09T00:38:07.128Z,94323.25
2022-11-09T00:39:03.762Z,94327.97
2022-11-09T00:40:00.286Z,94326.59
2022-11-09T00:41:00.042Z,94322.66
2022-11-09T00:41:56.540Z,94319.69
2022-11-09T00:42:53.146Z,94317.97
2022-11-09T00:43:50.043Z,94319.72
2022-11-09T00:44:46.826Z,94319.06
2022-11-09T00:45:43.329Z,94322.03
2022-11-09T00:46:39.857Z,94321.88
2022-11-09T00:47:36.403Z,94321.75
2022-11-09T00:48:33.145Z,94316.41
2022-11-09T00:49:29.595Z,94321.38
2022-11-09T00:50:26.034Z,94317.63
2022-11-09T00:51:22.537Z,94318.72
2022-11-09T00:52:18.972Z,94320.59
2022-11-09T00:53:15.430Z,94317.47
2022-11-09T00:54:11.970Z,94317.78
2022-11-09T00:55:08.646Z,94312.91
2022-11-09T00:56:06.486Z,94313.66
2022-11-09T00:57:02.950Z,94314.56
2022-11-09T00:57:59.427Z,94318.13
2022-11-09T00:58:56.204Z,94312.78
2022-11-09T00:59:53.749Z,94315.03
2022-11-09T01:00:50.514Z,94313.59
2022-11-09T01:01:47.009Z,94306.63
2022-11-09T01:02:43.541Z,94309.13
2022-11-09T01:03:40.034Z,94310.69
2022-11-09T01:04:36.475Z,94316.84
2022-11-09T01:05:32.901Z,94314.03
2022-11-09T01:06:29.418Z,94307.56
2022-11-09T01:07:26.007Z,94314.66
2022-11-09T01:08:22.442Z,94322.03
2022-11-09T01:09:18.881Z,94309.78
2022-11-09T01:10:15.341Z,94319.50
2022-11-09T01:11:12.773Z,94321.72
2022-11-09T01:12:09.216Z,94317.38
2022-11-09T01:13:05.659Z,94315.63
2022-11-09T01:14:02.237Z,94315.47
2022-11-09T01:14:58.701Z,94318.09
2022-11-09T01:15:55.188Z,94311.78
2022-11-09T01:16:51.706Z,94312.38
2022-11-09T01:17:48.196Z,94308.34
2022-11-09T01:18:44.787Z,94310.91
2022-11-09T01:19:41.294Z,94241.03
2022-11-09T01:20:42.199Z,94304.66
2022-11-09T01:21:38.712Z,94307.75
2022-11-09T01:22:35.236Z,94312.16
2022-11-09T01:23:31.914Z,94302.94
2022-11-09T01:24:28.363Z,94304.50
2022-11-09T01:25:24.857Z,94304.47
2022-11-09T01:26:21.714Z,94306.66
2022-11-09T01:27:18.159Z,94306.34
2022-11-09T01:28:14.687Z,94306.28
2022-11-09T01:29:11.303Z,94307.38
2022-11-09T01:30:08.133Z,94298.38
2022-11-09T01:31:06.442Z,94301.38
2022-11-09T01:32:03.377Z,94295.41
2022-11-09T01:32:59.897Z,94300.44
2022-11-09T01:33:56.461Z,94294.16
2022-11-09T01:34:52.918Z,94294.94
2022-11-09T01:35:49.409Z,94293.19
2022-11-09T01:36:45.871Z,94296.97
2022-11-09T01:37:42.357Z,94300.25
2022-11-09T01:38:39.058Z,94297.28
2022-11-09T01:39:35.614Z,94296.09
2022-11-09T01:40:32.698Z,94295.00
2022-11-09T01:41:29.167Z,94293.50
2022-11-09T01:42:25.776Z,94295.91
2022-11-09T01:43:23.395Z,94309.41
2022-11-09T01:44:20.437Z,94290.16
2022-11-09T01:45:30.195Z,94296.09
2022-11-09T01:46:30.750Z,94293.03
2022-11-09T01:47:27.207Z,94289.22
2022-11-09T01:48:33.057Z,94300.25
2022-11-09T01:50:08.147Z,94297.16
2022-11-09T01:51:10.842Z,94294.06
2022-11-09T01:52:16.241Z,94291.94
2022-11-09T01:53:18.931Z,94296.38
2022-11-09T01:54:19.055Z,94290.44
2022-11-09T01:55:17.252Z,94292.41
2022-11-09T01:56:14.902Z,94286.47
2022-11-09T01:57:14.703Z,94294.22
2022-11-09T01:58:15.164Z,94292.72
2022-11-09T01:59:14.348Z,94296.25
2022-11-09T02:00:12.716Z,94295.00
2022-11-09T02:01:11.400Z,94296.50
2022-11-09T02:02:08.098Z,94293.13
2022-11-09T02:03:07.848Z,94298.19
2022-11-09T02:04:08.329Z,94302.88
2022-11-09T02:05:08.519Z,94294.53
2022-11-09T02:06:06.778Z,94299.63
2022-11-09T02:07:03.387Z,94235.75
2022-11-09T02:08:01.825Z,94292.16
2022-11-09T02:09:03.962Z,94302.00
2022-11-09T02:10:14.551Z,94303.19
2022-11-09T02:11:12.156Z,94303.66
2022-11-09T02:12:09.125Z,94304.59
2022-11-09T02:13:07.333Z,94304.16
2022-11-09T02:14:04.725Z,94302.59
2022-11-09T02:15:02.471Z,94296.56
2022-11-09T02:15:59.082Z,94294.03
2022-11-09T02:16:55.849Z,94300.06
2022-11-09T02:17:53.750Z,94300.63
2022-11-09T02:18:54.135Z,94303.78
2022-11-09T02:19:50.593Z,94300.38
2022-11-09T02:20:51.219Z,94307.38
2022-11-09T02:21:47.712Z,94313.75
2022-11-09T02:22:44.362Z,94298.19
2022-11-09T02:23:41.134Z,94307.03
2022-11-09T02:24:37.655Z,94307.81
2022-11-09T02:25:34.088Z,94305.59
2022-11-09T02:26:50.145Z,94308.06
2022-11-09T02:27:46.854Z,94307.06
2022-11-09T02:28:43.789Z,94314.66
2022-11-09T02:29:42.343Z,94308.53
2022-11-09T02:30:38.875Z,94310.56
2022-11-09T02:31:38.207Z,94309.22
2022-11-09T02:32:34.661Z,94318.50
2022-11-09T02:33:40.029Z,94304.88
2022-11-09T02:34:36.522Z,94311.50
2022-11-09T02:35:32.991Z,94311.47
2022-11-09T02:36:29.414Z,94311.59
2022-11-09T02:37:25.840Z,94319.28
2022-11-09T02:38:22.386Z,94316.34
2022-11-09T02:39:19.857Z,94309.91
2022-11-09T02:40:45.719Z,94303.81
2022-11-09T02:42:03.354Z,94322.31
2022-11-09T02:43:01.216Z,94303.81
2022-11-09T02:43:58.038Z,94302.06
2022-11-09T02:44:58.981Z,94306.25
2022-11-09T02:45:55.417Z,94307.16
2022-11-09T02:46:52.111Z,94303.38
2022-11-09T02:47:48.603Z,94305.56
2022-11-09T02:48:45.066Z,94310.22
2022-11-09T02:49:41.582Z,94306.88
2022-11-09T02:50:38.101Z,94312.97
2022-11-09T02:51:34.631Z,94311.41
2022-11-09T02:52:31.147Z,94307.22
2022-11-09T02:53:27.620Z,94308.69
2022-11-09T02:54:24.118Z,94313.44
2022-11-09T02:55:20.594Z,94312.25
2022-11-09T02:56:17.036Z,94307.66
2022-11-09T02:57:13.578Z,94314.81
2022-11-09T02:58:10.181Z,94312.75
2022-11-09T02:59:06.949Z,94310.53
2022-11-09T03:00:03.946Z,94320.28
2022-11-09T03:01:00.515Z,94311.22
2022-11-09T03:01:57.110Z,94320.06
2022-11-09T03:02:53.733Z,94317.44
2022-11-09T03:03:50.179Z,94320.78
2022-11-09T03:04:46.611Z,94312.84
2022-11-09T03:05:44.211Z,94319.88
2022-11-09T03:06:40.762Z,94308.94
2022-11-09T03:07:37.382Z,94318.53
2022-11-09T03:08:33.833Z,94319.16
2022-11-09T03:09:30.274Z,94316.31
2022-11-09T03:10:27.116Z,94309.28
2022-11-09T03:11:23.551Z,94319.69
2022-11-09T03:12:29.181Z,94313.16
2022-11-09T03:13:25.727Z,94311.38
2022-11-09T03:14:22.300Z,94314.03
2022-11-09T03:15:18.905Z,94316.25
2022-11-09T03:16:15.468Z,94318.50
2022-11-09T03:17:14.065Z,94324.31
2022-11-09T03:18:10.589Z,94321.53
2022-11-09T03:19:07.463Z,94314.00
2022-11-09T03:20:04.465Z,94265.22
2022-11-09T03:21:02.113Z,94318.78
2022-11-09T03:21:58.554Z,94326.44
2022-11-09T03:22:59.208Z,94323.63
2022-11-09T03:23:55.805Z,94319.75
2022-11-09T03:24:52.317Z,94317.56
2022-11-09T03:25:48.788Z,94249.66
2022-11-09T03:26:45.256Z,94318.34
2022-11-09T03:27:41.815Z,94315.19
2022-11-09T03:28:38.383Z,94316.94
2022-11-09T03:29:34.876Z,94320.22
2022-11-09T03:30:31.658Z,94316.28
2022-11-09T03:31:28.150Z,94317.56
2022-11-09T03:32:24.612Z,94310.06
2022-11-09T03:33:21.668Z,94313.50
2022-11-09T03:34:18.443Z,94312.41
2022-11-09T03:35:14.977Z,94316.78
2022-11-09T03:36:11.425Z,94313.84
2022-11-09T03:37:07.855Z,94313.38
2022-11-09T03:38:04.521Z,94315.91
2022-11-09T03:39:01.165Z,94317.44
2022-11-09T03:39:57.642Z,94318.09
2022-11-09T03:40:54.119Z,94314.66
2022-11-09T03:41:50.580Z,94317.94
2022-11-09T03:42:47.804Z,94322.16
2022-11-09T03:43:44.233Z,94316.22
2022-11-09T03:44:40.678Z,94323.44
2022-11-09T03:45:37.157Z,94324.97
2022-11-09T03:46:33.609Z,94324.66
2022-11-09T03:47:30.069Z,94325.53
2022-11-09T03:48:26.535Z,94323.66
2022-11-09T03:49:23.935Z,94326.13
2022-11-09T03:50:20.436Z,94324.75
2022-11-09T03:51:16.882Z,94324.44
2022-11-09T03:52:13.359Z,94320.44
2022-11-09T03:53:10.477Z,94322.03
2022-11-09T03:54:06.987Z,94331.66
2022-11-09T03:55:03.904Z,94326.41
2022-11-09T03:56:00.349Z,94330.63
2022-11-09T03:56:56.945Z,94328.59
2022-11-09T03:57:53.538Z,94322.47
2022-11-09T03:58:50.117Z,94327.69
2022-11-09T03:59:46.724Z,94322.69
2022-11-09T04:00:43.232Z,94330.97
2022-11-09T04:01:39.833Z,94324.72
2022-11-09T04:02:36.387Z,94327.38
2022-11-09T04:03:32.969Z,94325.16
2022-11-09T04:04:29.470Z,94332.06
2022-11-09T04:05:26.198Z,94329.56
2022-11-09T04:06:22.789Z,94327.50
2022-11-09T04:07:19.348Z,94320.19
2022-11-09T04:08:15.831Z,94325.19
2022-11-09T04:09:12.438Z,94325.63
2022-11-09T04:10:08.910Z,94328.31
2022-11-09T04:11:05.393Z,94329.38
2022-11-09T04:12:01.955Z,94326.72
2022-11-09T04:12:58.541Z,94320.16
2022-11-09T04:13:55.041Z,94334.56
2022-11-09T04:14:51.552Z,94329.56
2022-11-09T04:15:48.271Z,94324.22
2022-11-09T04:16:44.869Z,94333.59
2022-11-09T04:17:41.587Z,94326.41
2022-11-09T04:18:38.092Z,94327.81
2022-11-09T04:19:34.653Z,94328.13
2022-11-09T04:20:32.360Z,94324.53
2022-11-09T04:21:28.831Z,94323.13
2022-11-09T04:22:25.307Z,94325.00
2022-11-09T04:23:22.178Z,94323.44
2022-11-09T04:24:18.938Z,94319.69
2022-11-09T04:25:15.386Z,94326.09
2022-11-09T04:26:11.837Z,94322.00
2022-11-09T04:27:08.276Z,94324.81
2022-11-09T04:28:05.931Z,94321.84
2022-11-09T04:29:02.351Z,94329.63
2022-11-09T04:29:58.781Z,94327.47
2022-11-09T04:30:55.243Z,94324.19
2022-11-09T04:31:51.999Z,94330.47
2022-11-09T04:32:48.618Z,94318.25
2022-11-09T04:33:49.398Z,94326.75
2022-11-09T04:34:45.908Z,94324.72
2022-11-09T04:35:42.462Z,94325.66
2022-11-09T04:36:38.983Z,94318.44
2022-11-09T04:37:35.421Z,94324.59
2022-11-09T04:38:32.273Z,94321.97
2022-11-09T04:39:28.795Z,94326.03
2022-11-09T04:40:26.373Z,94323.06
2022-11-09T04:41:22.888Z,94315.13
2022-11-09T04:42:19.398Z,94325.59
2022-11-09T04:43:16.197Z,94320.00
2022-11-09T04:44:12.757Z,94324.06
2022-11-09T04:45:09.385Z,94332.47
2022-11-09T04:46:05.858Z,94330.00
2022-11-09T04:47:02.336Z,94326.72
2022-11-09T04:47:59.679Z,94323.75
2022-11-09T04:48:56.192Z,94324.84
2022-11-09T04:49:52.689Z,94321.06
2022-11-09T04:50:49.261Z,94325.72
2022-11-09T04:51:45.714Z,94327.50
2022-11-09T04:52:42.241Z,94326.75
2022-11-09T04:53:38.814Z,94322.78
2022-11-09T04:54:35.265Z,94330.00
2022-11-09T04:55:31.699Z,94337.47
2022-11-09T04:56:28.206Z,94330.88
2022-11-09T04:57:24.719Z,94335.50
2022-11-09T04:58:24.907Z,94340.53
2022-11-09T04:59:21.728Z,94327.22
2022-11-09T05:00:18.277Z,94329.59
2022-11-09T05:01:15.089Z,94336.22
2022-11-09T05:02:11.541Z,94330.91
2022-11-09T05:03:08.337Z,94332.19
2022-11-09T05:04:04.936Z,94334.69
2022-11-09T05:05:01.541Z,94337.47
2022-11-09T05:05:58.080Z,94333.59
2022-11-09T05:06:54.645Z,94339.84
2022-11-09T05:07:51.157Z,94336.53
2022-11-09T05:08:47.644Z,94340.28
2022-11-09T05:09:44.093Z,94340.41
2022-11-09T05:10:40.529Z,94338.34
2022-11-09T05:11:37.600Z,94342.41
2022-11-09T05:12:34.144Z,94348.97
2022-11-09T05:13:30.587Z,94347.44
2022-11-09T05:14:27.049Z,94348.88
2022-11-09T05:15:23.821Z,94342.88
2022-11-09T05:16:20.722Z,94348.47
2022-11-09T05:17:17.196Z,94341.75
2022-11-09T05:18:13.705Z,94341.94
2022-11-09T05:19:10.160Z,94341.94
2022-11-09T05:20:06.947Z,94337.41
2022-11-09T05:21:03.690Z,94348.38
2022-11-09T05:22:20.247Z,94346.78
2022-11-09T05:23:35.611Z,94350.69
2022-11-09T05:24:32.162Z,94347.97
2022-11-09T05:25:28.729Z,94348.63
2022-11-09T05:26:28.162Z,94348.63
2022-11-09T05:27:24.604Z,94347.19
2022-11-09T05:28:21.081Z,94354.13
2022-11-09T05:29:17.572Z,94354.25
2022-11-09T05:30:14.010Z,94351.13
2022-11-09T05:31:10.493Z,94348.78
2022-11-09T05:32:06.935Z,94359.13
2022-11-09T05:33:03.571Z,94354.16
2022-11-09T05:34:00.460Z,94357.28
2022-11-09T05:34:56.950Z,94357.41
2022-11-09T05:35:57.122Z,94356.59
2022-11-09T05:36:53.580Z,94356.41
2022-11-09T05:37:50.529Z,94358.38
2022-11-09T05:38:47.350Z,94357.06
2022-11-09T05:39:44.024Z,94352.19
2022-11-09T05:40:40.536Z,94360.28
2022-11-09T05:41:36.989Z,94358.91
2022-11-09T05:42:33.487Z,94357.47
2022-11-09T05:43:29.942Z,94361.69
2022-11-09T05:44:26.469Z,94359.63
2022-11-09T05:45:42.028Z,94367.69
2022-11-09T05:46:39.673Z,94363.13
2022-11-09T05:47:39.913Z,94367.81
2022-11-09T05:48:36.388Z,94363.63
2022-11-09T05:49:32.836Z,94366.13
2022-11-09T05:50:29.314Z,94375.06
2022-11-09T05:51:25.859Z,94370.66
2022-11-09T05:52:22.313Z,94378.00
2022-11-09T05:53:19.063Z,94369.56
2022-11-09T05:54:15.739Z,94366.13
2022-11-09T05:55:12.249Z,94374.09
2022-11-09T05:56:10.158Z,94369.19
2022-11-09T05:57:06.765Z,94369.66
2022-11-09T05:58:03.315Z,94375.88
2022-11-09T05:58:59.764Z,94377.09
2022-11-09T05:59:56.230Z,94385.47
2022-11-09T06:00:52.653Z,94380.03
2022-11-09T06:01:49.140Z,94377.28
2022-11-09T06:02:45.652Z,94379.16
2022-11-09T06:03:44.214Z,94384.19
2022-11-09T06:04:40.985Z,94386.38
2022-11-09T06:05:38.369Z,94386.53
2022-11-09T06:06:34.949Z,94388.34
2022-11-09T06:07:32.818Z,94385.19
2022-11-09T06:08:29.883Z,94378.75
2022-11-09T06:09:26.383Z,94384.88
2022-11-09T06:10:22.845Z,94387.22
2022-11-09T06:11:24.069Z,94390.19
2022-11-09T06:12:21.105Z,94400.78
2022-11-09T06:13:17.969Z,94384.19
2022-11-09T06:14:14.693Z,94384.50
2022-11-09T06:15:11.220Z,94393.06
2022-11-09T06:16:07.858Z,94391.06
2022-11-09T06:17:04.323Z,94388.22
2022-11-09T06:18:01.039Z,94391.66
2022-11-09T06:18:57.542Z,94388.22
2022-11-09T06:19:54.026Z,94392.63
2022-11-09T06:20:53.745Z,94393.84
2022-11-09T06:21:50.184Z,94388.00
2022-11-09T06:22:52.868Z,94389.19
2022-11-09T06:23:49.393Z,94393.97
2022-11-09T06:24:45.946Z,94395.88
2022-11-09T06:25:42.415Z,94393.94
2022-11-09T06:26:38.877Z,94388.28
2022-11-09T06:27:35.328Z,94395.81
2022-11-09T06:28:32.076Z,94386.84
2022-11-09T06:29:28.522Z,94396.53
2022-11-09T06:30:25.006Z,94395.31
2022-11-09T06:31:21.510Z,94389.78
2022-11-09T06:32:17.959Z,94402.00
2022-11-09T06:33:14.523Z,94390.25
2022-11-09T06:34:11.504Z,94395.56
2022-11-09T06:35:08.564Z,94392.25
2022-11-09T06:36:05.420Z,94390.88
2022-11-09T06:37:01.882Z,94391.38
2022-11-09T06:37:58.962Z,94393.47
2022-11-09T06:38:55.411Z,94388.50
2022-11-09T06:39:52.874Z,94395.44
2022-11-09T06:40:53.319Z,94393.53
2022-11-09T06:41:49.798Z,94395.38
2022-11-09T06:42:46.273Z,94393.03
2022-11-09T06:43:43.323Z,94395.53
2022-11-09T06:44:39.785Z,94390.56
2022-11-09T06:45:36.408Z,94387.34
2022-11-09T06:46:33.033Z,94391.47
2022-11-09T06:47:29.563Z,94387.09
2022-11-09T06:48:26.144Z,94393.19
2022-11-09T06:49:22.638Z,94390.28
2022-11-09T06:50:19.126Z,94392.94
2022-11-09T06:51:15.581Z,94392.38
2022-11-09T06:52:12.041Z,94391.00
2022-11-09T06:53:10.235Z,94394.50
2022-11-09T06:54:06.781Z,94393.31
2022-11-09T06:55:03.322Z,94399.91
2022-11-09T06:56:00.597Z,94399.44
2022-11-09T06:56:58.066Z,94398.13
2022-11-09T06:57:54.750Z,94396.28
2022-11-09T06:58:51.202Z,94394.09
2022-11-09T06:59:47.644Z,94397.97
2022-11-09T07:00:44.497Z,94391.22
2022-11-09T07:01:40.991Z,94394.66
2022-11-09T07:02:37.558Z,94396.66
2022-11-09T07:03:34.028Z,94392.25
2022-11-09T07:04:30.659Z,94399.78
2022-11-09T07:05:27.381Z,94391.13
2022-11-09T07:06:23.984Z,94397.84
2022-11-09T07:07:24.934Z,94398.09
2022-11-09T07:08:24.019Z,94399.97
2022-11-09T07:09:20.546Z,94386.88
2022-11-09T07:10:17.240Z,94395.00
2022-11-09T07:11:16.367Z,94391.69
2022-11-09T07:12:13.153Z,94394.56
2022-11-09T07:13:10.105Z,94388.59
2022-11-09T07:14:06.876Z,94393.19
2022-11-09T07:15:04.036Z,94391.69
2022-11-09T07:16:00.727Z,94392.63
2022-11-09T07:16:57.166Z,94390.59
2022-11-09T07:17:57.019Z,94392.41
2022-11-09T07:18:53.465Z,94392.72
2022-11-09T07:19:49.888Z,94393.28
2022-11-09T07:20:46.349Z,94393.97
2022-11-09T07:21:42.876Z,94387.81
2022-11-09T07:22:41.894Z,94390.59
2022-11-09T07:23:38.381Z,94391.06
2022-11-09T07:24:34.913Z,94387.28
2022-11-09T07:25:32.187Z,94392.84
2022-11-09T07:26:28.726Z,94391.28
2022-11-09T07:27:28.231Z,94388.28
2022-11-09T07:28:24.952Z,94385.28
2022-11-09T07:29:21.420Z,94383.72
2022-11-09T07:30:17.886Z,94387.25
2022-11-09T07:31:14.343Z,94383.31
2022-11-09T07:32:10.868Z,94393.47
2022-11-09T07:33:12.747Z,94389.94
2022-11-09T07:34:09.193Z,94393.72
2022-11-09T07:35:06.006Z,94386.38
2022-11-09T07:36:03.096Z,94385.91
2022-11-09T07:36:59.605Z,94395.72
2022-11-09T07:37:59.625Z,94390.63
2022-11-09T07:38:56.105Z,94389.72
2022-11-09T07:39:52.559Z,94388.69
2022-11-09T07:40:49.008Z,94393.72
2022-11-09T07:41:47.468Z,94396.84
2022-11-09T07:42:43.946Z,94385.81
2022-11-09T07:43:40.675Z,94390.50
2022-11-09T07:44:37.138Z,94392.38
2022-11-09T07:45:34.664Z,94389.84
2022-11-09T07:46:31.141Z,94386.22
2022-11-09T07:47:27.668Z,94385.03
2022-11-09T07:48:24.333Z,94388.91
2022-11-09T07:49:20.813Z,94391.59
2022-11-09T07:50:17.322Z,94391.03
2022-11-09T07:51:13.805Z,94392.69
2022-11-09T07:52:10.278Z,94393.72
2022-11-09T07:53:09.740Z,94394.72
2022-11-09T07:54:06.555Z,94393.81
2022-11-09T07:55:03.062Z,94401.50
2022-11-09T07:56:00.244Z,94394.03
2022-11-09T07:56:56.750Z,94387.16
2022-11-09T07:57:56.888Z,94394.34
2022-11-09T07:58:53.353Z,94389.97
2022-11-09T07:59:51.680Z,94394.34
2022-11-09T08:00:48.179Z,94391.59
2022-11-09T08:01:44.911Z,94392.50
2022-11-09T08:02:41.479Z,94392.94
2022-11-09T08:03:38.094Z,94399.28
2022-11-09T08:04:34.535Z,94396.13
2022-11-09T08:05:31.172Z,94393.94
2022-11-09T08:06:28.481Z,94394.19
2022-11-09T08:07:25.259Z,94392.19
2022-11-09T08:08:21.709Z,94397.19
2022-11-09T08:09:18.269Z,94398.34
2022-11-09T08:10:14.865Z,94407.94
2022-11-09T08:11:11.410Z,94390.09
2022-11-09T08:12:07.943Z,94394.16
2022-11-09T08:13:09.829Z,94390.47
2022-11-09T08:14:06.270Z,94391.84
2022-11-09T08:15:02.742Z,94401.84
2022-11-09T08:16:01.282Z,94395.88
2022-11-09T08:16:57.812Z,94400.13
2022-11-09T08:17:54.576Z,94397.69
2022-11-09T08:18:51.553Z,94398.41
2022-11-09T08:19:47.999Z,94402.44
2022-11-09T08:20:44.528Z,94405.84
2022-11-09T08:21:40.951Z,94399.53
2022-11-09T08:22:44.459Z,94403.13
2022-11-09T08:23:40.946Z,94403.13
2022-11-09T08:24:37.381Z,94406.69
2022-11-09T08:25:34.474Z,94396.84
2022-11-09T08:26:31.054Z,94402.56
2022-11-09T08:27:29.929Z,94410.00
2022-11-09T08:28:26.497Z,94404.28
2022-11-09T08:29:23.074Z,94401.50
2022-11-09T08:30:20.730Z,94395.94
2022-11-09T08:31:17.188Z,94401.97
2022-11-09T08:32:13.630Z,94405.75
2022-11-09T08:33:10.558Z,94400.91
2022-11-09T08:34:10.757Z,94403.16
2022-11-09T08:35:07.708Z,94402.81
2022-11-09T08:36:14.548Z,94398.28
2022-11-09T08:37:11.009Z,94398.16
2022-11-09T08:38:07.600Z,94402.78
2022-11-09T08:39:04.094Z,94400.09
2022-11-09T08:40:00.531Z,94398.03
2022-11-09T08:40:57.735Z,94402.28
2022-11-09T08:41:54.246Z,94400.22
2022-11-09T08:42:51.176Z,94406.00
2022-11-09T08:43:47.685Z,94409.19
2022-11-09T08:44:44.191Z,94407.31
2022-11-09T08:45:41.345Z,94403.59
2022-11-09T08:46:41.237Z,94403.44
2022-11-09T08:47:38.934Z,94407.66
2022-11-09T08:48:35.601Z,94405.09
2022-11-09T08:49:32.532Z,94408.50
2022-11-09T08:50:29.396Z,94406.09
2022-11-09T08:51:25.910Z,94404.28
2022-11-09T08:52:22.742Z,94403.84
2022-11-09T08:53:19.199Z,94401.22
2022-11-09T08:54:17.982Z,94403.13
2022-11-09T08:55:14.434Z,94399.19
2022-11-09T08:56:12.888Z,94400.81
2022-11-09T08:57:09.510Z,94397.81
2022-11-09T08:58:05.961Z,94397.88
2022-11-09T08:59:02.558Z,94400.66
2022-11-09T08:59:59.144Z,94396.94
2022-11-09T09:00:55.753Z,94395.47
2022-11-09T09:01:52.841Z,94398.63
2022-11-09T09:02:50.050Z,94395.03
2022-11-09T09:03:46.914Z,94399.91
2022-11-09T09:04:43.748Z,94403.63
2022-11-09T09:05:40.216Z,94400.59
2022-11-09T09:06:36.708Z,94399.81
2022-11-09T09:07:33.229Z,94396.38
2022-11-09T09:08:29.666Z,94392.75
2022-11-09T09:09:26.196Z,94392.34
2022-11-09T09:10:22.687Z,94396.09
2022-11-09T09:11:19.440Z,94408.06
2022-11-09T09:12:16.127Z,94397.59
2022-11-09T09:13:12.562Z,94397.28
2022-11-09T09:14:09.280Z,94389.94
2022-11-09T09:15:06.537Z,94392.81
2022-11-09T09:16:12.406Z,94395.38
2022-11-09T09:17:10.370Z,94394.72
2022-11-09T09:18:08.270Z,94389.66
2022-11-09T09:19:14.204Z,94392.88
2022-11-09T09:20:11.061Z,94394.47
2022-11-09T09:21:10.827Z,94388.28
2022-11-09T09:22:07.341Z,94395.91
2022-11-09T09:23:03.877Z,94389.88
2022-11-09T09:24:00.487Z,94382.03
2022-11-09T09:24:57.014Z,94390.56
2022-11-09T09:25:58.401Z,94387.56
2022-11-09T09:26:55.353Z,94382.78
2022-11-09T09:27:51.914Z,94386.09
2022-11-09T09:28:48.469Z,94376.88
2022-11-09T09:29:44.931Z,94381.63
2022-11-09T09:30:41.409Z,94381.09
2022-11-09T09:31:37.936Z,94382.81
2022-11-09T09:32:34.375Z,94382.53
2022-11-09T09:33:30.826Z,94373.69
2022-11-09T09:34:27.281Z,94377.13
2022-11-09T09:35:23.760Z,94378.75
2022-11-09T09:36:21.592Z,94384.81
2022-11-09T09:37:18.337Z,94376.09
2022-11-09T09:38:14.828Z,94381.78
2022-11-09T09:39:11.399Z,94375.06
2022-11-09T09:40:08.333Z,94378.34
2022-11-09T09:41:06.557Z,94383.84
2022-11-09T09:42:05.630Z,94374.22
2022-11-09T09:43:02.297Z,94379.28
2022-11-09T09:44:01.142Z,94373.03
2022-11-09T09:45:16.675Z,94368.19
2022-11-09T09:46:33.453Z,94371.22
2022-11-09T09:47:32.949Z,94370.31
2022-11-09T09:48:29.393Z,94369.00
2022-11-09T09:49:27.619Z,94362.72
2022-11-09T09:50:26.541Z,94361.81
2022-11-09T09:51:23.092Z,94357.22
2022-11-09T09:52:23.415Z,94360.69
2022-11-09T09:53:39.845Z,94359.53
2022-11-09T09:54:41.176Z,94362.25
2022-11-09T09:55:39.819Z,94358.72
2022-11-09T09:56:39.950Z,94359.69
2022-11-09T09:57:41.753Z,94363.03
2022-11-09T09:58:42.125Z,94362.72
2022-11-09T09:59:43.733Z,94358.59
2022-11-09T10:00:41.441Z,94354.88
2022-11-09T10:01:42.721Z,94362.00
2022-11-09T10:02:39.173Z,94351.09
2022-11-09T10:03:36.979Z,94357.75
2022-11-09T10:04:33.465Z,94346.25
2022-11-09T10:05:37.734Z,94358.50
2022-11-09T10:06:40.939Z,94355.28
2022-11-09T10:07:37.422Z,94345.28
2022-11-09T10:08:36.596Z,94353.19
2022-11-09T10:10:11.630Z,94346.75
2022-11-09T10:11:15.137Z,94346.41
2022-11-09T10:12:11.590Z,94346.13
2022-11-09T10:13:26.205Z,94344.84
2022-11-09T10:14:36.289Z,94344.91
2022-11-09T10:15:38.247Z,94346.66
2022-11-09T10:16:39.917Z,94342.66
2022-11-09T10:17:43.021Z,94337.34
2022-11-09T10:18:45.586Z,94340.09
2022-11-09T10:19:44.800Z,94335.41
2022-11-09T10:20:52.671Z,94345.06
2022-11-09T10:21:52.546Z,94342.28
2022-11-09T10:22:55.071Z,94342.97
2022-11-09T10:23:59.819Z,94341.03
2022-11-09T10:26:37.333Z,94341.28
2022-11-09T10:27:38.105Z,94341.25
2022-11-09T10:29:09.075Z,94340.00
2022-11-09T10:29:55.950Z,94339.19
2022-11-09T10:30:52.652Z,94328.44
2022-11-09T10:31:50.720Z,94334.50
2022-11-09T10:32:50.502Z,94325.59
2022-11-09T10:33:49.724Z,94330.97
2022-11-09T10:34:54.127Z,94331.59
2022-11-09T10:35:55.221Z,94335.63
2022-11-09T10:36:58.618Z,94326.88
2022-11-09T10:37:55.103Z,94332.72
2022-11-09T10:38:54.015Z,94329.63
2022-11-09T10:39:58.120Z,94334.47
2022-11-09T10:41:00.107Z,94321.16
2022-11-09T10:41:56.715Z,94328.19
2022-11-09T10:42:57.657Z,94334.22
2022-11-09T10:43:54.157Z,94331.59
2022-11-09T10:44:50.593Z,94327.81
2022-11-09T10:45:57.114Z,94323.56
2022-11-09T10:47:05.072Z,94327.66
2022-11-09T10:48:02.362Z,94327.63
2022-11-09T10:49:17.890Z,94324.28
2022-11-09T10:50:14.326Z,94318.91
2022-11-09T10:51:30.837Z,94318.47
2022-11-09T10:52:44.239Z,94316.78
2022-11-09T10:53:43.604Z,94318.13
2022-11-09T10:54:40.088Z,94313.41
2022-11-09T10:55:37.040Z,94314.88
2022-11-09T10:57:05.090Z,94310.25
2022-11-09T10:58:02.196Z,94308.03
2022-11-09T10:58:58.746Z,94308.53
2022-11-09T10:59:57.151Z,94303.69
2022-11-09T11:01:00.180Z,94257.56
2022-11-09T11:02:01.885Z,94311.03
2022-11-09T11:03:09.274Z,94301.44
2022-11-09T11:04:23.573Z,94308.69
2022-11-09T11:05:21.775Z,94302.50
2022-11-09T11:06:19.217Z,94303.44
2022-11-09T11:07:21.248Z,94302.59
2022-11-09T11:08:26.364Z,94228.16
2022-11-09T11:09:23.456Z,94310.66
2022-11-09T11:10:23.174Z,94302.19
2022-11-09T11:11:38.216Z,94298.84
2022-11-09T11:12:34.778Z,94304.59
2022-11-09T11:13:31.287Z,94300.41
2022-11-09T11:14:27.702Z,94298.69
2022-11-09T11:15:38.014Z,94306.19
2022-11-09T11:16:35.173Z,94301.22
2022-11-09T11:17:35.971Z,94300.31
2022-11-09T11:18:34.255Z,94301.22
2022-11-09T11:19:30.679Z,94296.88
2022-11-09T11:20:29.970Z,94299.31
2022-11-09T11:21:27.221Z,94290.72
2022-11-09T11:22:25.139Z,94294.44
2022-11-09T11:23:23.442Z,94290.63